Scarsdale, NY (10583)

11:56 AM EDT on May 29, 2017 (GMT -0400)
| | Change Station
Active Advisory: Coastal Flood Statement Active Notice: Coastal Flood Statement

Elev -9999 ft 0.00 °N, 0.00 °E | Updated 9 minutes ago

Rain
Rain
°F
Feels Like °F
N
Wind Variable Wind from North
Gusts mph

Today
High -- | Low -- °F
--% Chance of Precip.
Yesterday
High -- | Low -- °F
Precip. -- in
Pressure 29.94 in
Visibility 3.0 miles
Clouds Scattered Clouds 1100 ft
Mostly Cloudy 2000 ft
Dew Point Not available.
Humidity Not available.
Rainfall --
Snow Depth Not available.
5:26 AM 8:18 PM
Waxing Crescent, 20% visible
METAR KHPN 291456Z 10006G18KT 3SM -RA BR SCT011 BKN020 12/11 A2994 RMK AO2 DZE53RAB53 SLP139 P0002 60002 T01220106 53013
Pressure 29.94 in
Visibility 3.0 miles
Clouds Scattered Clouds 1100 ft
Mostly Cloudy 2000 ft
Dew Point Not available.
Humidity Not available.
Rainfall --
Snow Depth Not available.
5:26 AM 8:18 PM
Waxing Crescent, 20% visible
METAR KHPN 291456Z 10006G18KT 3SM -RA BR SCT011 BKN020 12/11 A2994 RMK AO2 DZE53RAB53 SLP139 P0002 60002 T01220106 53013

Get Your Daily Forecast Email!

Thanks for signing up!

Be on the lookout for a verification email in your inbox.

You'll start receiving severe weather alerts in your inbox..

×

10-Day Weather Forecast

Almanac

Astronomy

May. 29, 2017 Rise Set
Actual Time
Civil Twilight
Nautical Twilight
Astronomical Twilight
Moon
Length of Visible Light
Length of Day
Tomorrow will be .
, % of the Moon is Illuminated

Today's Extremes

State Highs State Lows

Community

WunderPhotos

Category 6

Welcome to Category 6. This is the collective home for Weather Underground's featured writeups by Dr. Jeff Masters (right), Bob Henson (left), Chris Burt, and other regular contributors.

Nearby

Air Quality

  Air Quality AQ Index Pollutant
Not available.

Snow Depth

Station Depth Elevation

Earthquake Activity

City Distance Mag. Time & Date
Minimum magnitude displayed is 2.5.

Coastal Water Temperatures

Place Temperature

Stations

Nearby Weather Stations

Station Location Temp. Windchill Dew Point Humidity Wind Precip. Elev Updated Type
                   

Watches & Warnings

Coastal Flood Statement
Issued: 5:03 AM EDT May. 29, 2017 – National Weather Service

* locations... northeast New Jersey... southern
Westchester... southern Fairfield... and the South Shore back
bays of New York City and Nassau County.

* Positive tidal departures... 1 to 1 1/2 ft.

* Timing... around the times of high tide tonight.

* Impacts... brief minor flooding of the most vulnerable Waterfront
and shoreline roads.